Time;durP1;ratioP1;P1;durP2;ratioP2;P2;SDS_P1;SDS_P2;PMS_P1;PMS_P2;Temp;Humidity;BMP_temperature;BMP_pressure;BME280_temperature;BME280_humidity;BME280_pressure;Samples;Min_cycle;Max_cycle;Signal;HPM_P1;HPM_P2
2021/07/03 00:01:20;;;;;;;;;;;14.80;1.00;;;;;;5069040;28;19919;-60
2021/07/03 00:03:46;;;;;;;;;;;14.90;1.00;;;;;;5068483;28;19912;-60
2021/07/03 00:06:11;;;;;;;;;;;14.90;1.00;;;;;;5068799;28;19912;-60
2021/07/03 00:08:37;;;;;;;;;;;14.90;1.00;;;;;;5067130;28;20373;-61
2021/07/03 00:11:04;;;;;;;;;;;14.80;1.00;;;;;;5068692;28;20368;-60
2021/07/03 00:13:29;;;;;;;;;;;14.80;1.00;;;;;;5069080;28;20311;-60
2021/07/03 00:15:55;;;;;;;;;;;14.90;1.00;;;;;;5069186;28;19909;-61
2021/07/03 00:18:21;;;;;;;;;;;14.80;1.00;;;;;;5067324;28;19908;-60
2021/07/03 00:20:46;;;;;;;;;;;14.90;1.00;;;;;;5069137;28;19966;-60
2021/07/03 00:23:12;;;;;;;;;;;14.80;1.00;;;;;;5067104;28;19909;-60
2021/07/03 00:25:38;;;;;;;;;;;14.70;1.00;;;;;;5052027;28;20007;-60
2021/07/03 00:28:04;;;;;;;;;;;14.70;1.00;;;;;;5047872;28;19913;-60
2021/07/03 00:30:29;;;;;;;;;;;14.60;1.00;;;;;;5048842;28;19959;-60
2021/07/03 00:32:55;;;;;;;;;;;14.70;1.00;;;;;;5048019;28;19920;-60
2021/07/03 00:35:20;;;;;;;;;;;14.60;1.00;;;;;;5048506;28;20323;-60
2021/07/03 00:37:46;;;;;;;;;;;14.50;1.00;;;;;;5047151;28;20049;-60
2021/07/03 00:40:12;;;;;;;;;;;14.50;1.00;;;;;;5047696;28;20395;-60
2021/07/03 00:42:37;;;;;;;;;;;14.50;1.00;;;;;;5048367;28;20014;-60
2021/07/03 00:45:04;;;;;;;;;;;14.40;1.00;;;;;;5048774;28;19913;-60
2021/07/03 00:47:29;;;;;;;;;;;14.40;1.00;;;;;;5046857;28;20189;-60
2021/07/03 00:49:55;;;;;;;;;;;14.40;1.00;;;;;;5048480;28;19913;-58
2021/07/03 00:52:20;;;;;;;;;;;14.40;1.00;;;;;;5048157;28;19932;-60
2021/07/03 00:54:47;;;;;;;;;;;14.30;1.00;;;;;;5047565;28;19913;-60
2021/07/03 00:57:12;;;;;;;;;;;14.20;1.00;;;;;;5047916;28;19913;-59
2021/07/03 00:59:43;;;;;;;;;;;14.20;1.00;;;;;;5061398;28;19916;-61
2021/07/03 01:02:10;;;;;;;;;;;14.10;1.00;;;;;;5065400;28;20365;-60
2021/07/03 01:04:35;;;;;;;;;;;14.20;1.00;;;;;;5067660;28;20401;-58
2021/07/03 01:07:02;;;;;;;;;;;14.10;1.00;;;;;;5067404;28;19991;-56
2021/07/03 01:09:27;;;;;;;;;;;14.10;1.00;;;;;;5046952;28;20274;-58
2021/07/03 01:11:53;;;;;;;;;;;14.10;1.00;;;;;;5047999;28;19909;-60
2021/07/03 01:14:19;;;;;;;;;;;14.10;1.00;;;;;;5047991;28;19916;-60
2021/07/03 01:16:46;;;;;;;;;;;14.10;1.00;;;;;;5048090;28;19915;-60
2021/07/03 01:19:12;;;;;;;;;;;14.00;1.00;;;;;;5053421;28;19912;-58
2021/07/03 01:21:37;;;;;;;;;;;14.00;1.00;;;;;;5066870;28;19909;-59
2021/07/03 01:24:03;;;;;;;;;;;14.00;1.00;;;;;;5058856;28;19915;-58
2021/07/03 01:26:39;;;;;;;;;;;14.00;1.00;;;;;;5047393;28;19920;-60
2021/07/03 01:29:04;;;;;;;;;;;13.90;1.00;;;;;;5047952;28;19909;-58
2021/07/03 01:31:30;;;;;;;;;;;13.90;1.00;;;;;;5051230;28;20289;-60
2021/07/03 01:33:55;;;;;;;;;;;13.90;1.00;;;;;;5050590;28;19975;-60
2021/07/03 01:36:21;;;;;;;;;;;13.90;1.00;;;;;;5051215;28;20301;-59
2021/07/03 01:38:46;;;;;;;;;;;13.90;1.00;;;;;;5050282;28;20011;-61
2021/07/03 01:41:12;;;;;;;;;;;13.90;1.00;;;;;;5051239;28;19909;-59
2021/07/03 01:43:37;;;;;;;;;;;13.90;1.00;;;;;;5050972;28;20358;-59
2021/07/03 01:46:02;;;;;;;;;;;13.90;1.00;;;;;;5051170;28;19912;-58
2021/07/03 01:48:30;;;;;;;;;;;13.90;1.00;;;;;;5050277;28;19909;-59
2021/07/03 01:50:56;;;;;;;;;;;13.80;1.00;;;;;;5050998;28;19962;-60
2021/07/03 01:53:22;;;;;;;;;;;13.70;1.00;;;;;;5032078;28;20265;-58
2021/07/03 01:55:48;;;;;;;;;;;13.70;1.00;;;;;;5050480;28;19912;-59
2021/07/03 01:58:15;;;;;;;;;;;13.70;1.00;;;;;;5052367;28;20035;-59
2021/07/03 02:00:41;;;;;;;;;;;13.70;1.00;;;;;;5070944;28;19908;-59
2021/07/03 02:03:06;;;;;;;;;;;13.70;1.00;;;;;;5070321;28;20336;-58
2021/07/03 02:05:32;;;;;;;;;;;13.60;1.00;;;;;;5070819;28;19912;-58
2021/07/03 02:07:57;;;;;;;;;;;13.70;1.00;;;;;;5069550;28;20575;-58
2021/07/03 02:10:23;;;;;;;;;;;13.60;1.00;;;;;;5070079;28;19908;-58
2021/07/03 02:12:48;;;;;;;;;;;13.60;1.00;;;;;;5070551;28;19912;-59
2021/07/03 02:15:14;;;;;;;;;;;13.60;1.00;;;;;;5071657;28;19995;-59
2021/07/03 02:17:40;;;;;;;;;;;13.60;1.00;;;;;;5069258;28;19923;-59
2021/07/03 02:20:06;;;;;;;;;;;13.50;1.00;;;;;;5070501;28;19916;-57
2021/07/03 02:22:31;;;;;;;;;;;13.50;1.00;;;;;;5070409;28;20294;-58
2021/07/03 02:24:57;;;;;;;;;;;13.50;1.00;;;;;;5059338;28;19909;-58
2021/07/03 02:27:22;;;;;;;;;;;13.50;1.00;;;;;;5050310;28;20376;-59
2021/07/03 02:29:48;;;;;;;;;;;13.40;1.00;;;;;;5050264;28;19909;-58
2021/07/03 02:32:13;;;;;;;;;;;13.40;1.00;;;;;;5050035;28;19915;-59
2021/07/03 02:34:39;;;;;;;;;;;13.40;1.00;;;;;;5050675;28;19917;-56
2021/07/03 02:37:04;;;;;;;;;;;13.40;1.00;;;;;;5050500;28;19917;-58
2021/07/03 02:39:30;;;;;;;;;;;13.40;1.00;;;;;;5048619;28;19917;-59
2021/07/03 02:41:55;;;;;;;;;;;13.40;1.00;;;;;;5050185;28;19912;-59
2021/07/03 02:44:21;;;;;;;;;;;13.30;1.00;;;;;;5050367;28;19912;-59
2021/07/03 02:46:46;;;;;;;;;;;13.40;1.00;;;;;;5064325;28;19908;-59
2021/07/03 02:49:12;;;;;;;;;;;13.30;1.00;;;;;;5060593;28;19912;-58
2021/07/03 02:51:37;;;;;;;;;;;13.30;1.00;;;;;;5069970;28;20558;-57
2021/07/03 02:54:03;;;;;;;;;;;13.30;1.00;;;;;;5069439;28;19909;-58
2021/07/03 02:56:28;;;;;;;;;;;13.20;1.00;;;;;;5070106;28;20000;-57
2021/07/03 02:58:54;;;;;;;;;;;13.20;1.00;;;;;;5069517;28;20077;-58
2021/07/03 03:01:19;;;;;;;;;;;13.10;1.00;;;;;;5069628;28;20382;-59
2021/07/03 03:03:45;;;;;;;;;;;13.10;1.00;;;;;;5069579;28;20007;-58
2021/07/03 03:06:11;;;;;;;;;;;13.10;1.00;;;;;;5069387;28;19908;-58
2021/07/03 03:08:37;;;;;;;;;;;13.00;1.00;;;;;;5056111;28;19924;-58
2021/07/03 03:11:02;;;;;;;;;;;13.10;1.00;;;;;;5049495;28;19921;-59
2021/07/03 03:13:28;;;;;;;;;;;13.00;1.00;;;;;;5049667;28;19939;-58
2021/07/03 03:15:53;;;;;;;;;;;13.10;1.00;;;;;;5049660;28;19909;-59
2021/07/03 03:18:19;;;;;;;;;;;13.00;1.00;;;;;;5047717;28;20362;-57
2021/07/03 03:20:44;;;;;;;;;;;13.00;1.00;;;;;;5069342;28;20387;-59
2021/07/03 03:23:10;;;;;;;;;;;13.00;1.00;;;;;;5068765;28;19961;-60
2021/07/03 03:25:35;;;;;;;;;;;13.00;1.00;;;;;;5053307;28;19912;-59
2021/07/03 03:28:01;;;;;;;;;;;13.00;1.00;;;;;;5048362;28;20003;-58
2021/07/03 03:30:27;;;;;;;;;;;13.00;1.00;;;;;;5049119;28;19989;-59
2021/07/03 03:32:52;;;;;;;;;;;13.00;1.00;;;;;;5048644;28;20346;-59
2021/07/03 03:35:17;;;;;;;;;;;13.00;1.00;;;;;;5049211;28;19999;-58
2021/07/03 03:37:43;;;;;;;;;;;13.00;1.00;;;;;;5047795;28;19909;-57
2021/07/03 03:40:09;;;;;;;;;;;13.00;1.00;;;;;;5048002;28;20391;-58
2021/07/03 03:42:35;;;;;;;;;;;13.10;1.00;;;;;;5048792;28;19913;-59
2021/07/03 03:45:00;;;;;;;;;;;13.20;1.00;;;;;;5049051;28;19948;-57
2021/07/03 03:47:26;;;;;;;;;;;13.30;1.00;;;;;;5047519;28;20445;-59
2021/07/03 03:49:51;;;;;;;;;;;13.40;1.00;;;;;;5048605;28;19913;-60
2021/07/03 03:52:17;;;;;;;;;;;13.50;1.00;;;;;;5047387;28;20289;-59
2021/07/03 03:54:42;;;;;;;;;;;13.70;1.00;;;;;;5047932;28;19912;-59
2021/07/03 03:59:52;;;;;;;;;;;13.90;1.00;;;;;;5064307;28;19923;-60
2021/07/03 04:02:18;;;;;;;;;;;14.10;1.00;;;;;;5068145;28;20361;-59
2021/07/03 04:04:44;;;;;;;;;;;14.30;1.00;;;;;;5068499;28;19944;-57
2021/07/03 04:07:10;;;;;;;;;;;14.40;99.90;;;;;;5067898;28;19975;-60
2021/07/03 04:09:35;;;;;;;;;;;14.50;99.90;;;;;;5066783;28;20661;-60
2021/07/03 04:12:01;;;;;;;;;;;14.70;99.90;;;;;;5068500;28;19954;-59
2021/07/03 04:14:26;;;;;;;;;;;14.80;99.90;;;;;;5068022;28;19915;-59
2021/07/03 04:16:52;;;;;;;;;;;14.80;1.00;;;;;;5068548;28;19959;-59
2021/07/03 04:19:17;;;;;;;;;;;14.80;1.00;;;;;;5067547;28;19960;-60
2021/07/03 04:21:43;;;;;;;;;;;14.70;1.00;;;;;;5068183;28;20292;-60
2021/07/03 04:24:08;;;;;;;;;;;14.50;1.00;;;;;;5058504;28;20384;-60
2021/07/03 04:26:34;;;;;;;;;;;14.50;70.50;;;;;;5047730;28;20003;-60
2021/07/03 04:28:59;;;;;;;;;;;14.50;99.90;;;;;;5047353;28;19912;-61
2021/07/03 04:31:25;;;;;;;;;;;14.70;99.90;;;;;;5048355;28;20188;-60
2021/07/03 04:33:50;;;;;;;;;;;15.20;99.90;;;;;;5047903;28;19923;-61
2021/07/03 04:36:16;;;;;;;;;;;15.90;1.00;;;;;;5047535;28;19946;-60
2021/07/03 04:38:41;;;;;;;;;;;16.50;1.00;;;;;;5046943;28;20357;-61
2021/07/03 04:41:07;;;;;;;;;;;17.10;1.00;;;;;;5047716;28;19944;-59
2021/07/03 04:43:33;;;;;;;;;;;17.70;1.00;;;;;;5047974;28;19931;-61
2021/07/03 04:45:58;;;;;;;;;;;18.20;99.90;;;;;;5047934;28;20025;-61
2021/07/03 04:48:24;;;;;;;;;;;18.70;72.30;;;;;;5046763;28;20066;-60
2021/07/03 04:50:49;;;;;;;;;;;19.10;1.00;;;;;;5047902;28;20384;-61
2021/07/03 04:53:15;;;;;;;;;;;19.60;1.00;;;;;;5047124;28;20473;-60
2021/07/03 04:55:40;;;;;;;;;;;20.00;1.00;;;;;;5047965;28;19916;-61
2021/07/03 04:58:06;;;;;;;;;;;20.50;1.00;;;;;;5047907;28;19931;-61
2021/07/03 05:00:31;;;;;;;;;;;20.60;99.90;;;;;;5067680;28;20009;-61
2021/07/03 05:02:57;;;;;;;;;;;20.60;99.90;;;;;;5068303;28;20109;-62
2021/07/03 05:05:22;;;;;;;;;;;20.60;99.90;;;;;;5072712;28;20349;-61
2021/07/03 05:07:48;;;;;;;;;;;20.60;99.90;;;;;;5071205;28;20365;-62
2021/07/03 05:10:13;;;;;;;;;;;20.70;99.90;;;;;;5071261;28;19920;-61
2021/07/03 05:12:39;;;;;;;;;;;20.90;99.90;;;;;;5071923;28;20023;-61
2021/07/03 05:15:05;;;;;;;;;;;21.40;99.90;;;;;;5072084;28;19962;-59
2021/07/03 05:17:30;;;;;;;;;;;21.90;99.90;;;;;;5071280;28;20272;-61
2021/07/03 05:19:56;;;;;;;;;;;22.70;99.90;;;;;;5072461;28;19939;-59
2021/07/03 05:22:22;;;;;;;;;;;23.20;99.90;;;;;;5071778;28;19966;-61
2021/07/03 05:24:47;;;;;;;;;;;23.10;99.90;;;;;;5043808;28;19909;-62
2021/07/03 05:27:13;;;;;;;;;;;23.50;99.90;;;;;;5051661;28;19963;-61
2021/07/03 05:29:38;;;;;;;;;;;23.50;99.90;;;;;;5051719;28;19913;-60
2021/07/03 05:32:04;;;;;;;;;;;23.80;99.90;;;;;;5051953;28;19909;-62
2021/07/03 05:34:29;;;;;;;;;;;23.70;99.90;;;;;;5051349;28;19921;-62
2021/07/03 05:36:56;;;;;;;;;;;24.10;99.90;;;;;;5051299;28;19916;-60
2021/07/03 05:39:22;;;;;;;;;;;24.70;99.90;;;;;;5050539;28;19913;-62
2021/07/03 05:41:47;;;;;;;;;;;25.20;99.90;;;;;;5051574;28;19962;-61
2021/07/03 05:44:13;;;;;;;;;;;26.00;99.90;;;;;;5051722;28;19913;-58
2021/07/03 05:46:38;;;;;;;;;;;26.80;99.90;;;;;;5064368;28;19999;-58
2021/07/03 05:49:04;;;;;;;;;;;27.30;99.90;;;;;;5062007;28;19908;-62
2021/07/03 05:51:29;;;;;;;;;;;27.80;99.90;;;;;;5071186;28;19917;-62
2021/07/03 05:53:55;;;;;;;;;;;28.20;99.90;;;;;;5070848;28;20038;-61
2021/07/03 05:56:20;;;;;;;;;;;28.90;99.90;;;;;;5071505;28;19908;-63
2021/07/03 05:58:46;;;;;;;;;;;29.50;99.90;;;;;;5070128;28;20028;-62
2021/07/03 06:01:12;;;;;;;;;;;29.70;99.90;;;;;;5071155;28;19944;-60
2021/07/03 06:03:38;;;;;;;;;;;29.80;99.90;;;;;;5070706;28;19908;-60
2021/07/03 06:06:03;;;;;;;;;;;30.00;99.90;;;;;;5071283;28;19908;-60
2021/07/03 06:08:29;;;;;;;;;;;29.90;99.90;;;;;;5070059;28;20320;-60
2021/07/03 06:10:54;;;;;;;;;;;30.30;99.90;;;;;;5070783;28;19912;-63
2021/07/03 06:13:20;;;;;;;;;;;29.70;99.90;;;;;;5070549;28;20003;-63
2021/07/03 06:15:45;;;;;;;;;;;30.20;99.90;;;;;;5070385;28;19908;-60
2021/07/03 06:18:11;;;;;;;;;;;30.70;99.90;;;;;;5069744;28;19928;-60
2021/07/03 06:20:36;;;;;;;;;;;30.90;99.90;;;;;;5065755;28;19916;-59
2021/07/03 06:23:02;;;;;;;;;;;30.90;99.90;;;;;;5057866;28;19924;-63
2021/07/03 06:25:27;;;;;;;;;;;30.80;99.90;;;;;;5061608;28;19982;-59
2021/07/03 06:27:53;;;;;;;;;;;31.20;99.90;;;;;;5063970;28;19935;-60
2021/07/03 06:30:18;;;;;;;;;;;31.40;99.90;;;;;;5060768;28;20050;-61
2021/07/03 06:32:44;;;;;;;;;;;31.70;99.90;;;;;;5058646;28;19948;-61
2021/07/03 06:35:09;;;;;;;;;;;31.80;99.90;;;;;;5059449;28;20361;-61
2021/07/03 06:37:35;;;;;;;;;;;31.30;99.90;;;;;;5060052;28;20019;-60
2021/07/03 06:40:00;;;;;;;;;;;31.80;99.90;;;;;;5061594;28;19920;-59
2021/07/03 06:42:26;;;;;;;;;;;32.20;99.90;;;;;;5061771;28;19958;-58
2021/07/03 06:44:51;;;;;;;;;;;32.50;99.90;;;;;;5059705;28;19917;-61
2021/07/03 06:47:17;;;;;;;;;;;32.60;99.50;;;;;;5056868;28;19952;-59
2021/07/03 06:49:43;;;;;;;;;;;33.50;97.50;;;;;;5060044;28;19936;-61
2021/07/03 06:52:09;;;;;;;;;;;34.00;95.40;;;;;;5058771;28;19951;-62
2021/07/03 06:54:35;;;;;;;;;;;35.20;93.10;;;;;;5057092;28;19978;-60
2021/07/03 06:57:01;;;;;;;;;;;35.90;89.80;;;;;;5060732;28;19917;-63
2021/07/03 06:59:27;;;;;;;;;;;36.50;83.50;;;;;;5068856;28;19913;-62
2021/07/03 07:01:53;;;;;;;;;;;36.40;76.60;;;;;;5070234;28;19908;-62
2021/07/03 07:04:20;;;;;;;;;;;36.50;71.70;;;;;;5070037;28;19909;-62
2021/07/03 07:06:49;;;;;;;;;;;37.00;64.60;;;;;;5069859;28;19909;-62
2021/07/03 07:09:14;;;;;;;;;;;36.10;58.40;;;;;;5069138;28;19909;-62
2021/07/03 07:11:40;;;;;;;;;;;35.30;54.80;;;;;;5056725;28;20773;-62
2021/07/03 07:14:05;;;;;;;;;;;34.50;50.30;;;;;;5050776;28;19916;-61
2021/07/03 07:16:31;;;;;;;;;;;35.20;49.30;;;;;;5049717;28;19954;-62
2021/07/03 07:18:56;;;;;;;;;;;34.50;44.50;;;;;;5053181;28;19912;-60
2021/07/03 07:21:22;;;;;;;;;;;32.90;42.10;;;;;;5069135;28;19919;-61
2021/07/03 07:23:47;;;;;;;;;;;34.10;43.50;;;;;;5062402;28;19913;-62
2021/07/03 07:26:13;;;;;;;;;;;35.50;43.00;;;;;;5049471;28;19916;-62
2021/07/03 07:28:38;;;;;;;;;;;36.40;41.10;;;;;;5049074;28;19908;-62
2021/07/03 07:31:04;;;;;;;;;;;36.50;38.00;;;;;;5056969;28;19921;-62
2021/07/03 07:33:29;;;;;;;;;;;36.80;35.40;;;;;;5056762;28;19925;-62
2021/07/03 07:35:55;;;;;;;;;;;35.60;30.20;;;;;;5058960;28;19955;-60
2021/07/03 07:38:20;;;;;;;;;;;35.30;30.00;;;;;;5057668;28;19912;-61
2021/07/03 07:40:46;;;;;;;;;;;36.00;29.60;;;;;;5057122;28;19909;-62
2021/07/03 07:43:11;;;;;;;;;;;36.40;28.70;;;;;;5059293;28;20277;-62
2021/07/03 07:45:37;;;;;;;;;;;37.00;28.50;;;;;;5058099;28;20277;-62
2021/07/03 07:48:02;;;;;;;;;;;37.90;26.70;;;;;;5065774;28;19935;-62
2021/07/03 07:50:28;;;;;;;;;;;38.00;25.10;;;;;;5069353;28;19912;-62
2021/07/03 07:52:53;;;;;;;;;;;36.10;21.30;;;;;;5068730;28;19915;-61
2021/07/03 07:55:19;;;;;;;;;;;35.50;21.50;;;;;;5067687;28;19912;-61
2021/07/03 07:57:44;;;;;;;;;;;35.80;21.60;;;;;;5067887;28;20373;-61
2021/07/03 08:00:10;;;;;;;;;;;35.80;19.70;;;;;;5067630;28;19955;-62
2021/07/03 08:02:36;;;;;;;;;;;35.60;19.30;;;;;;5068717;28;19913;-61
2021/07/03 08:05:01;;;;;;;;;;;35.80;18.60;;;;;;5069084;28;19954;-61
2021/07/03 08:07:26;;;;;;;;;;;35.10;17.70;;;;;;5068170;28;19935;-62
2021/07/03 08:09:52;;;;;;;;;;;34.70;15.90;;;;;;5067928;28;19915;-61
2021/07/03 08:12:17;;;;;;;;;;;33.30;15.40;;;;;;5069374;28;20003;-60
2021/07/03 08:14:43;;;;;;;;;;;34.00;16.90;;;;;;5069328;28;19981;-62
2021/07/03 08:17:08;;;;;;;;;;;34.90;17.50;;;;;;5068807;28;20552;-62
2021/07/03 08:19:34;;;;;;;;;;;36.80;17.60;;;;;;5067992;28;19912;-62
2021/07/03 08:22:01;;;;;;;;;;;38.40;17.30;;;;;;5068534;28;19927;-62
2021/07/03 08:24:26;;;;;;;;;;;39.20;15.90;;;;;;5061729;28;19913;-62
2021/07/03 08:26:52;;;;;;;;;;;39.50;14.10;;;;;;5049217;28;19913;-62
2021/07/03 08:29:17;;;;;;;;;;;40.10;12.00;;;;;;5048329;28;19920;-62
2021/07/03 08:31:43;;;;;;;;;;;41.20;10.50;;;;;;5030452;28;19920;-64
2021/07/03 08:34:08;;;;;;;;;;;42.50;9.60;;;;;;5048348;28;19997;-62
2021/07/03 08:36:34;;;;;;;;;;;42.70;6.60;;;;;;5048418;28;19915;-62
2021/07/03 08:38:59;;;;;;;;;;;41.90;2.50;;;;;;5047098;28;19932;-62
2021/07/03 08:41:26;;;;;;;;;;;41.90;1.00;;;;;;5048222;28;20409;-61
2021/07/03 08:43:52;;;;;;;;;;;41.10;1.00;;;;;;5049095;28;19956;-62
2021/07/03 08:46:18;;;;;;;;;;;40.50;1.00;;;;;;5058581;28;20391;-62
2021/07/03 08:48:43;;;;;;;;;;;40.20;1.60;;;;;;5059049;28;19913;-62
2021/07/03 08:51:09;;;;;;;;;;;40.00;1.00;;;;;;5068014;28;19970;-63
2021/07/03 08:53:34;;;;;;;;;;;39.70;1.00;;;;;;5067877;28;20433;-62
2021/07/03 08:56:00;;;;;;;;;;;39.10;1.00;;;;;;5067923;28;20274;-62
2021/07/03 08:58:25;;;;;;;;;;;38.80;1.00;;;;;;5067929;28;19944;-62
2021/07/03 09:00:51;;;;;;;;;;;37.60;1.00;;;;;;5068950;28;19913;-62
2021/07/03 09:03:21;;;;;;;;;;;39.40;1.00;;;;;;5068515;28;19909;-62
2021/07/03 09:05:53;;;;;;;;;;;41.00;1.00;;;;;;5068598;28;20225;-63
2021/07/03 09:08:19;;;;;;;;;;;41.80;1.00;;;;;;5066409;28;19916;-63
2021/07/03 09:10:45;;;;;;;;;;;43.20;1.00;;;;;;5067504;28;19962;-63
2021/07/03 09:13:11;;;;;;;;;;;44.10;1.00;;;;;;5068168;28;20346;-63
2021/07/03 09:15:41;;;;;;;;;;;43.80;1.00;;;;;;5068765;28;20173;-63
2021/07/03 09:18:07;;;;;;;;;;;43.20;1.00;;;;;;5067161;28;19919;-63
2021/07/03 09:20:35;;;;;;;;;;;43.50;1.00;;;;;;5068253;28;19909;-63
2021/07/03 09:23:02;;;;;;;;;;;44.50;1.00;;;;;;5067447;28;20393;-63
2021/07/03 09:25:28;;;;;;;;;;;44.40;1.00;;;;;;5052610;28;19988;-63
2021/07/03 09:27:54;;;;;;;;;;;44.30;1.00;;;;;;5047375;28;20000;-63
2021/07/03 09:30:22;;;;;;;;;;;44.40;1.00;;;;;;5047954;28;19968;-63
2021/07/03 09:32:49;;;;;;;;;;;43.30;1.00;;;;;;5047594;28;20011;-63
2021/07/03 09:35:15;;;;;;;;;;;42.90;1.00;;;;;;5047682;28;19915;-63
2021/07/03 09:37:40;;;;;;;;;;;40.10;1.00;;;;;;5046923;28;19913;-62
2021/07/03 09:40:06;;;;;;;;;;;38.70;1.00;;;;;;5047139;28;20016;-62
2021/07/03 09:42:36;;;;;;;;;;;39.60;1.00;;;;;;5047664;28;20285;-63
2021/07/03 09:45:02;;;;;;;;;;;41.50;1.00;;;;;;5048139;28;19909;-63
2021/07/03 09:47:27;;;;;;;;;;;42.60;1.00;;;;;;5046875;28;20081;-63
2021/07/03 09:50:05;;;;;;;;;;;42.90;1.00;;;;;;5048115;28;19999;-63
2021/07/03 09:52:31;;;;;;;;;;;41.90;1.00;;;;;;5051135;28;19959;-63
2021/07/03 09:54:57;;;;;;;;;;;41.30;1.00;;;;;;5050822;28;19908;-63
2021/07/03 09:57:24;;;;;;;;;;;41.40;1.00;;;;;;5032919;28;19909;-63
2021/07/03 09:59:50;;;;;;;;;;;42.80;1.00;;;;;;5066735;28;19916;-63
2021/07/03 10:02:16;;;;;;;;;;;44.20;1.00;;;;;;5070841;28;19993;-63
2021/07/03 10:04:41;;;;;;;;;;;44.20;1.00;;;;;;5070971;28;19920;-63
2021/07/03 10:07:11;;;;;;;;;;;42.40;1.00;;;;;;5070798;28;19984;-63
2021/07/03 10:09:45;;;;;;;;;;;42.40;1.00;;;;;;5049912;28;19920;-63
2021/07/03 10:12:11;;;;;;;;;;;41.80;1.00;;;;;;5051224;28;19916;-63
2021/07/03 10:14:41;;;;;;;;;;;41.90;1.00;;;;;;5050745;28;19916;-63
2021/07/03 10:17:07;;;;;;;;;;;43.30;1.00;;;;;;5051117;28;19978;-63
2021/07/03 10:19:33;;;;;;;;;;;44.10;1.00;;;;;;5059894;28;20006;-63
2021/07/03 10:22:12;;;;;;;;;;;45.20;1.00;;;;;;5070559;28;20066;-63
2021/07/03 10:24:57;;;;;;;;;;;43.70;1.00;;;;;;5056803;28;19909;-63
2021/07/03 10:27:24;;;;;;;;;;;41.60;1.00;;;;;;5050346;28;19915;-63
2021/07/03 10:29:50;;;;;;;;;;;40.80;1.00;;;;;;5050967;28;20366;-63
2021/07/03 10:32:21;;;;;;;;;;;41.20;1.00;;;;;;5050467;28;19909;-63
2021/07/03 10:34:47;;;;;;;;;;;41.90;1.00;;;;;;5050677;28;20050;-63
2021/07/03 10:37:15;;;;;;;;;;;42.60;1.00;;;;;;5050267;28;20007;-63
2021/07/03 10:39:41;;;;;;;;;;;42.50;1.00;;;;;;5031805;28;19908;-63
2021/07/03 10:42:06;;;;;;;;;;;42.60;1.00;;;;;;5050204;28;19912;-63
2021/07/03 10:44:39;;;;;;;;;;;43.60;1.00;;;;;;5050448;28;19995;-63
2021/07/03 10:47:05;;;;;;;;;;;44.40;1.00;;;;;;5050781;28;19913;-63
2021/07/03 10:49:31;;;;;;;;;;;45.00;1.00;;;;;;5049627;28;19921;-64
2021/07/03 10:51:57;;;;;;;;;;;45.30;1.00;;;;;;5050122;28;19908;-63
2021/07/03 10:54:24;;;;;;;;;;;45.50;1.00;;;;;;5050046;28;20382;-63
2021/07/03 10:57:04;;;;;;;;;;;45.50;1.00;;;;;;5049747;28;20234;-63
2021/07/03 10:59:30;;;;;;;;;;;44.70;1.00;;;;;;5062229;28;19912;-63
2021/07/03 11:02:12;;;;;;;;;;;43.30;1.00;;;;;;5070008;28;19912;-63
2021/07/03 11:04:49;;;;;;;;;;;42.70;1.00;;;;;;5069916;28;19957;-63
2021/07/03 11:07:17;;;;;;;;;;;42.30;1.00;;;;;;5069230;28;20061;-63
2021/07/03 11:09:42;;;;;;;;;;;41.60;1.00;;;;;;5069306;28;19912;-63
2021/07/03 11:12:15;;;;;;;;;;;39.20;1.00;;;;;;5069603;28;20169;-62
2021/07/03 11:14:54;;;;;;;;;;;38.60;1.00;;;;;;5069573;28;19913;-62
2021/07/03 11:17:20;;;;;;;;;;;36.70;1.00;;;;;;5068624;28;19916;-62
2021/07/03 11:19:50;;;;;;;;;;;35.50;1.00;;;;;;5069478;28;19983;-62
2021/07/03 11:22:17;;;;;;;;;;;35.60;1.00;;;;;;5069160;28;19916;-62
2021/07/03 11:24:42;;;;;;;;;;;36.50;1.00;;;;;;5059764;28;19999;-62
2021/07/03 11:27:08;;;;;;;;;;;37.20;1.00;;;;;;5049029;28;20541;-62
2021/07/03 11:29:33;;;;;;;;;;;38.00;1.00;;;;;;5049032;28;19912;-62
2021/07/03 11:32:03;;;;;;;;;;;38.40;1.00;;;;;;5049287;28;19913;-63
2021/07/03 11:34:29;;;;;;;;;;;38.40;1.00;;;;;;5049395;28;20329;-62
2021/07/03 11:36:55;;;;;;;;;;;38.60;1.00;;;;;;5048895;28;19909;-63
2021/07/03 11:39:21;;;;;;;;;;;38.10;1.00;;;;;;5048688;28;19916;-62
2021/07/03 11:41:46;;;;;;;;;;;37.80;1.00;;;;;;5049236;28;20357;-62
2021/07/03 11:44:12;;;;;;;;;;;37.40;1.00;;;;;;5049515;28;19908;-62
2021/07/03 11:46:38;;;;;;;;;;;37.30;1.00;;;;;;5061559;28;20011;-62
2021/07/03 11:49:04;;;;;;;;;;;37.10;1.00;;;;;;5059910;28;19913;-62
2021/07/03 11:51:29;;;;;;;;;;;36.60;1.00;;;;;;5068956;28;20342;-62
2021/07/03 11:53:55;;;;;;;;;;;36.20;1.00;;;;;;5069009;28;19930;-61
2021/07/03 11:56:22;;;;;;;;;;;35.80;1.00;;;;;;5068900;28;20063;-61
2021/07/03 11:58:49;;;;;;;;;;;35.60;1.00;;;;;;5068364;28;19924;-61
2021/07/03 12:01:16;;;;;;;;;;;34.70;1.00;;;;;;5068408;28;19915;-61
2021/07/03 12:03:43;;;;;;;;;;;32.80;33.00;;;;;;5068195;28;19912;-60
2021/07/03 12:06:09;;;;;;;;;;;32.50;99.90;;;;;;5068525;28;19909;-59
2021/07/03 12:08:36;;;;;;;;;;;31.90;99.90;;;;;;5067485;28;19916;-61
2021/07/03 12:11:02;;;;;;;;;;;31.30;29.60;;;;;;5068003;28;19912;-60
2021/07/03 12:13:32;;;;;;;;;;;30.50;1.00;;;;;;5067838;28;19931;-60
2021/07/03 12:15:57;;;;;;;;;;;30.00;1.00;;;;;;5069150;28;19912;-61
2021/07/03 12:18:27;;;;;;;;;;;29.70;8.90;;;;;;5067394;28;20486;-61
2021/07/03 12:21:01;;;;;;;;;;;29.50;1.00;;;;;;5049011;28;20266;-61
2021/07/03 12:23:27;;;;;;;;;;;29.30;1.00;;;;;;5067045;28;19908;-61
2021/07/03 12:25:52;;;;;;;;;;;29.40;1.00;;;;;;5049911;28;19927;-62
2021/07/03 12:28:18;;;;;;;;;;;29.30;1.00;;;;;;5047595;28;19908;-61
2021/07/03 12:30:43;;;;;;;;;;;29.30;1.00;;;;;;5048524;28;20243;-64
2021/07/03 12:33:10;;;;;;;;;;;29.30;1.00;;;;;;5048066;28;19924;-61
2021/07/03 12:35:40;;;;;;;;;;;29.30;1.00;;;;;;5048093;28;20047;-61
2021/07/03 12:38:06;;;;;;;;;;;29.30;1.00;;;;;;5047457;28;19948;-61
2021/07/03 12:40:37;;;;;;;;;;;29.10;1.00;;;;;;5047802;28;19928;-61
2021/07/03 12:43:02;;;;;;;;;;;28.90;1.00;;;;;;5048251;28;19945;-61
2021/07/03 12:45:28;;;;;;;;;;;28.60;19.00;;;;;;5051152;28;19908;-61
2021/07/03 12:48:03;;;;;;;;;;;28.40;23.00;;;;;;5059039;28;20366;-61
2021/07/03 12:50:28;;;;;;;;;;;28.30;4.40;;;;;;5068713;28;20000;-62
2021/07/03 12:53:01;;;;;;;;;;;28.10;1.00;;;;;;5068137;28;19913;-62
2021/07/03 12:55:33;;;;;;;;;;;28.00;1.00;;;;;;5067095;28;20106;-62
2021/07/03 12:57:58;;;;;;;;;;;27.80;1.00;;;;;;5093748;22;20308;-62
2021/07/03 13:00:24;;;;;;;;;;;27.70;1.00;;;;;;5109618;28;20011;-60
2021/07/03 13:02:49;;;;;;;;;;;27.40;1.00;;;;;;5109138;28;19908;-63
2021/07/03 13:05:15;;;;;;;;;;;27.10;1.00;;;;;;5109241;28;19928;-61
2021/07/03 13:07:41;;;;;;;;;;;27.00;1.10;;;;;;5103609;28;19931;-61
2021/07/03 13:10:08;;;;;;;;;;;27.10;10.60;;;;;;5088297;28;19930;-60
2021/07/03 13:12:33;;;;;;;;;;;27.40;1.00;;;;;;5089191;28;19999;-61
2021/07/03 13:14:59;;;;;;;;;;;27.60;1.00;;;;;;5089041;28;20328;-59
2021/07/03 13:17:24;;;;;;;;;;;27.80;1.00;;;;;;5088091;28;20043;-61
2021/07/03 13:19:50;;;;;;;;;;;27.90;1.00;;;;;;5088500;28;20192;-61
2021/07/03 13:22:15;;;;;;;;;;;27.90;1.00;;;;;;5088607;28;19954;-57
2021/07/03 13:24:41;;;;;;;;;;;28.00;1.00;;;;;;5090429;28;19916;-61
2021/07/03 13:27:06;;;;;;;;;;;28.20;1.00;;;;;;5092732;28;19955;-64
2021/07/03 13:29:32;;;;;;;;;;;28.40;1.00;;;;;;5092232;28;19973;-60
2021/07/03 13:31:57;;;;;;;;;;;28.20;1.00;;;;;;5092484;28;19912;-58
2021/07/03 13:34:23;;;;;;;;;;;28.00;1.00;;;;;;5092383;28;19908;-60
2021/07/03 13:36:49;;;;;;;;;;;27.60;1.00;;;;;;5092321;28;19908;-62
2021/07/03 13:39:14;;;;;;;;;;;27.40;1.00;;;;;;5091395;28;20416;-60
2021/07/03 13:41:40;;;;;;;;;;;27.50;1.00;;;;;;5091919;28;20213;-62
2021/07/03 13:44:05;;;;;;;;;;;27.40;1.00;;;;;;5092542;28;20253;-60
2021/07/03 13:46:31;;;;;;;;;;;27.60;1.00;;;;;;5092297;28;20253;-60
2021/07/03 13:48:56;;;;;;;;;;;27.50;1.00;;;;;;5082902;28;19919;-60
2021/07/03 13:51:22;;;;;;;;;;;27.40;1.00;;;;;;5092446;28;20014;-59
2021/07/03 13:53:47;;;;;;;;;;;27.20;1.00;;;;;;5091553;28;19912;-60
2021/07/03 13:56:13;;;;;;;;;;;27.10;1.00;;;;;;5091399;28;19908;-61
2021/07/03 13:58:38;;;;;;;;;;;26.90;1.00;;;;;;5096948;28;20288;-59
2021/07/03 14:01:06;;;;;;;;;;;26.80;1.00;;;;;;5112560;28;19957;-61
2021/07/03 14:03:33;;;;;;;;;;;26.70;1.00;;;;;;5112437;28;19911;-60
2021/07/03 14:05:58;;;;;;;;;;;26.70;1.00;;;;;;5112094;28;19995;-61
2021/07/03 14:08:24;;;;;;;;;;;26.70;1.00;;;;;;5099876;28;20011;-62
2021/07/03 14:10:49;;;;;;;;;;;26.70;1.00;;;;;;5091243;28;19920;-61
2021/07/03 14:13:15;;;;;;;;;;;26.80;1.00;;;;;;5091593;28;19908;-62
2021/07/03 14:15:40;;;;;;;;;;;26.90;1.00;;;;;;5091980;28;19911;-59
2021/07/03 14:18:06;;;;;;;;;;;27.00;1.00;;;;;;5091204;28;20241;-60
2021/07/03 14:20:32;;;;;;;;;;;27.20;1.00;;;;;;5091696;28;19908;-60
2021/07/03 14:22:58;;;;;;;;;;;27.50;1.00;;;;;;5091042;28;20067;-62